Flight Track Log - Related Links

Times and Time Zones

All times are in EDT time to prevent confusion due to time zone crossing. See the SWA508 flight status page for this flight to view local times or setup timezone preferences in your user account.

Time Position Orientation Groundspeed Altitude Reporting Facility
EDT Latitude Longitude Course Direction KTS MPH feet Rate Location/Type
Fri 03:57:47 PM 39.8622 -75.2925 270° West 154 177 1,600  Level New York Center
Fri 03:58:10 PM 39.8578 -75.3083 250° West 191 220 2,700 3,628 Climbing FAA TRACON SMA TRACON (SMA)
Fri 03:58:30 PM 39.8561 -75.3325 265° West 185 213 4,200 3,750 Climbing FAA TRACON SMA TRACON (SMA)
Fri 03:58:50 PM 39.8547 -75.3544 265° West 199 229 5,200 3,150 Climbing FAA TRACON SMA TRACON (SMA)
Fri 03:59:10 PM 39.8561 -75.3844 273° West 241 277 6,300 3,900 Climbing FAA TRACON SMA TRACON (SMA)
Fri 03:59:30 PM 39.8619 -75.4122 285° West 244 281 7,800 4,050 Climbing FAA TRACON SMA TRACON (SMA)
Fri 03:59:50 PM 39.8672 -75.4375 285° West 239 275 9,000 2,200 Climbing FAA TRACON SMA TRACON (SMA)
Fri 04:00:30 PM 39.8825 -75.4994 288° West 288 331 10,000 984 Climbing FAA TRACON SMA TRACON (SMA)
Fri 04:00:51 PM 39.8944 -75.5311 296° West 305 351 10,000  Level FAA TRACON SMA TRACON (SMA)
Fri 04:01:10 PM 39.9089 -75.5686 297° West 318 366 10,000 1,231 Level FAA TRACON SMA TRACON (SMA)
Fri 04:01:30 PM 39.9211 -75.6042 294° West 323 372 10,800 2,850 Climbing FAA TRACON SMA TRACON (SMA)
Fri 04:01:50 PM 39.9331 -75.6375 295° West 326 375 11,900 3,000 Climbing FAA TRACON SMA TRACON (SMA)
Fri 04:02:10 PM 39.9461 -75.6778 293° West 334 384 12,800 2,850 Climbing FAA TRACON SMA TRACON (SMA)
Fri 04:02:30 PM 39.9508 -75.7189 279° West 342 394 13,800 3,150 Climbing FAA TRACON SMA TRACON (SMA)
Fri 04:02:50 PM 39.9511 -75.7583 271° West 343 395 14,900 3,385 Climbing FAA TRACON SMA TRACON (SMA)
Fri 04:03:00 PM 39.9001 -75.9013 270° West  Level FlightAware Approximate
Fri 04:03:09 PM 39.9506 -75.7967 269° West 344 396 16,000  Level FAA TRACON SMA TRACON (SMA)
Fri 04:03:29 PM 39.9494 -75.8453 268° West 347 399 17,300 3,300 Climbing FAA TRACON SMA TRACON (SMA)
Fri 04:03:49 PM 39.9492 -75.8747 269° West 349 402 18,200 1,350 Climbing FAA TRACON SMA TRACON (SMA)
Fri 04:04:09 PM 39.9492 -75.8747 207° Southwest 349 402 18,200  Level FAA TRACON SMA TRACON (SMA)
Fri 04:04:29 PM 39.9492 -75.8747 207° Southwest 349 402 18,200 1,811 Level FAA TRACON SMA TRACON (SMA)
Fri 04:06:48 PM 39.8647 -76.2611 254° West 370 426 23,000 1,919 Climbing New York Center
Fri 04:07:46 PM 39.8278 -76.3853 249° West 375 432 24,500 1,678 Climbing New York Center
Fri 04:08:46 PM 39.7903 -76.5147 249° West 387 445 26,300 1,736 Climbing New York Center
Fri 04:09:47 PM 39.7503 -76.6492 249° West 387 445 28,000 1,623 Climbing New York Center
Fri 04:10:48 PM 39.7097 -76.7889 249° West 398 458 29,600 1,916 Climbing New York Center
Fri 04:11:46 PM 39.6858 -76.9300 258° West 405 466 31,800 2,218 Climbing New York Center
Fri 04:12:47 PM 39.7008 -77.0797 277° West 399 459 34,000 1,630 Climbing New York Center
Fri 04:13:07 PM 39.7017 -77.1342 271° West 416 479 34,000  Level Washington Center
Fri 04:14:07 PM 39.7144 -77.2667 277° West 409 471 34,000 600 Level Washington Center
Fri 04:15:07 PM 39.7372 -77.4317 280° West 414 476 35,200 1,650 Climbing Washington Center
Fri 04:16:07 PM 39.7103 -77.5578 255° West 376 433 37,300 1,900 Climbing Washington Center
Fri 04:17:07 PM 39.6667 -77.6753 244° Southwest 358 412 39,000 1,350 Climbing Washington Center
Fri 04:18:07 PM 39.6269 -77.7872 245° Southwest 358 412 40,000 500 Climbing Washington Center
Fri 04:19:07 PM 39.5811 -77.8989 242° Southwest 353 406 40,000  Level Washington Center
Fri 04:20:07 PM 39.5372 -78.0133 244° Southwest 358 412 40,000  Level Washington Center
Fri 04:21:07 PM 39.4933 -78.1247 243° Southwest 358 412 40,000  Level Washington Center
Fri 04:22:07 PM 39.4492 -78.2361 243° Southwest 358 412 40,000  Level Washington Center
Fri 04:23:07 PM 39.4072 -78.3475 244° Southwest 358 412 40,000  Level Washington Center
Fri 04:24:07 PM 39.3628 -78.4611 243° Southwest 358 412 40,000  Level Washington Center
Fri 04:25:07 PM 39.3186 -78.5667 242° Southwest 358 412 40,000  Level Washington Center
Fri 04:26:07 PM 39.2761 -78.6750 243° Southwest 352 405 40,000  Level Washington Center
Fri 04:27:07 PM 39.2339 -78.7831 243° Southwest 342 394 40,000  Level Washington Center
Fri 04:28:07 PM 39.1914 -78.8911 243° Southwest 342 394 40,000  Level Washington Center
Fri 04:29:07 PM 39.1464 -79.0014 242° Southwest 342 394 40,000  Level Washington Center
Fri 04:30:07 PM 39.1039 -79.1092 243° Southwest 342 394 40,000  Level Washington Center
Fri 04:31:07 PM 39.0608 -79.2192 243° Southwest 342 394 40,000  Level Washington Center
Fri 04:32:07 PM 39.0161 -79.3214 241° Southwest 342 394 40,000  Level Washington Center
Fri 04:33:07 PM 38.9731 -79.4286 243° Southwest 342 394 40,000  Level Washington Center
Fri 04:34:07 PM 38.9300 -79.5331 242° Southwest 342 394 40,000  Level Washington Center
Fri 04:35:07 PM 38.8914 -79.6322 243° Southwest 348 400 40,000  Level Washington Center
Fri 04:36:07 PM 38.8483 -79.7367 242° Southwest 348 400 40,000  Level Washington Center
Fri 04:37:07 PM 38.8069 -79.8408 243° Southwest 336 387 40,000  Level Washington Center
Fri 04:38:07 PM 38.7658 -79.9422 243° Southwest 331 381 40,000  Level Washington Center
Fri 04:39:07 PM 38.7158 -80.0564 241° Southwest 331 381 40,000  Level Washington Center
Fri 04:40:07 PM 38.6744 -80.1603 243° Southwest 331 381 40,000  Level Washington Center
Fri 04:40:27 PM 38.6603 -80.1856 234° Southwest 331 381 40,000  Level Indianapolis Center
Fri 04:41:29 PM 38.6369 -80.3014 256° West 337 388 40,000  Level Indianapolis Center
Fri 04:42:31 PM 38.6150 -80.4178 256° West 336 387 40,000  Level Indianapolis Center
Fri 04:43:32 PM 38.5928 -80.5347 256° West 338 389 40,000  Level Indianapolis Center
Fri 04:44:34 PM 38.5700 -80.6514 256° West 338 389 40,000  Level Indianapolis Center
Fri 04:45:36 PM 38.5478 -80.7703 257° West 340 391 40,000  Level Indianapolis Center
Fri 04:46:38 PM 38.5256 -80.8883 257° West 341 392 40,000  Level Indianapolis Center
Fri 04:47:40 PM 38.4975 -81.0303 256° West 343 395 40,000  Level Indianapolis Center
Fri 04:48:42 PM 38.4742 -81.1472 256° West 340 391 40,000  Level Indianapolis Center
Fri 04:49:43 PM 38.4506 -81.2650 256° West 339 390 40,000  Level Indianapolis Center
Fri 04:50:45 PM 38.4267 -81.3828 256° West 340 391 40,000  Level Indianapolis Center
Fri 04:51:47 PM 38.4039 -81.5031 256° West 344 396 40,000  Level Indianapolis Center
Fri 04:52:49 PM 38.3806 -81.6214 256° West 342 394 40,000  Level Indianapolis Center
Fri 04:53:51 PM 38.3564 -81.7392 255° West 341 392 40,000  Level Indianapolis Center
Fri 04:54:53 PM 38.3261 -81.8531 251° West 340 391 40,000  Level Indianapolis Center
Fri 04:55:54 PM 38.2947 -81.9667 251° West 339 390 40,000  Level Indianapolis Center
Fri 04:56:56 PM 38.2622 -82.0803 250° West 340 391 40,000  Level Indianapolis Center
Fri 04:57:58 PM 38.2256 -82.2150 251° West 336 387 40,000  Level Indianapolis Center
Fri 04:59:00 PM 38.1933 -82.3267 250° West 336 387 40,000  Level Indianapolis Center
Fri 05:00:01 PM 38.1622 -82.4342 250° West 326 375 40,000  Level Indianapolis Center
Fri 05:01:03 PM 38.1292 -82.5481 250° West 327 376 40,000  Level Indianapolis Center
Fri 05:02:05 PM 38.0989 -82.6547 250° West 322 371 40,000  Level Indianapolis Center
Fri 05:03:07 PM 38.0675 -82.7619 250° West 324 373 40,000  Level Indianapolis Center
Fri 05:04:08 PM 38.0364 -82.8708 250° West 328 377 40,000  Level Indianapolis Center
Fri 05:05:10 PM 37.9994 -82.9975 250° West 329 379 40,000  Level Indianapolis Center
Fri 05:06:12 PM 37.9675 -83.1067 250° West 329 379 40,000  Level Indianapolis Center
Fri 05:07:14 PM 37.9350 -83.2158 249° West 332 382 40,000 -488 Level Indianapolis Center
Fri 05:08:15 PM 37.9028 -83.3256 250° West 333 383 39,000 -927 Descending Indianapolis Center
Fri 05:09:17 PM 37.8700 -83.4383 250° West 340 391 38,100 -871 Descending Indianapolis Center
Fri 05:10:19 PM 37.8375 -83.5494 250° West 339 390 37,200 -976 Descending Indianapolis Center
Fri 05:11:20 PM 37.7989 -83.6778 249° West 337 388 36,100 -1,024 Descending Indianapolis Center
Fri 05:12:22 PM 37.7650 -83.7892 249° West 339 390 35,100 -919 Descending Indianapolis Center
Fri 05:13:24 PM 37.7331 -83.8958 249° West 326 375 34,200 -919 Descending Indianapolis Center
Fri 05:14:26 PM 37.6997 -84.0039 249° West 330 380 33,200 -976 Descending Indianapolis Center
Fri 05:15:27 PM 37.6672 -84.1125 249° West 332 382 32,200 -585 Descending Indianapolis Center
Fri 05:16:29 PM 37.6181 -84.2003 235° Southwest 304 350 32,000 -97 Descending Indianapolis Center
Fri 05:17:31 PM 37.5456 -84.2858 223° Southwest 305 351 32,000  Level Indianapolis Center
Fri 05:18:32 PM 37.4878 -84.3672 228° Southwest 309 356 32,000  Level Indianapolis Center
Fri 05:19:34 PM 37.4317 -84.4486 229° Southwest 309 356 32,000  Level Indianapolis Center
Fri 05:20:36 PM 37.3733 -84.5308 228° Southwest 314 361 32,000  Level Indianapolis Center
Fri 05:21:37 PM 37.3144 -84.6142 228° Southwest 318 366 32,000  Level Indianapolis Center
Fri 05:22:39 PM 37.2558 -84.6969 228° Southwest 317 365 32,000  Level Indianapolis Center
Fri 05:23:41 PM 37.1969 -84.7814 229° Southwest 319 367 32,000 -98 Level Indianapolis Center
Fri 05:24:42 PM 37.1283 -84.8772 228° Southwest 317 365 31,800 -634 Descending Indianapolis Center
Fri 05:25:44 PM 37.0703 -84.9583 228° Southwest 315 362 30,700 -1,016 Descending Indianapolis Center
Fri 05:26:46 PM 37.0119 -85.0389 228° Southwest 306 352 29,700 -976 Descending Indianapolis Center
Fri 05:27:47 PM 36.9567 -85.1181 229° Southwest 303 349 28,700 -976 Descending Indianapolis Center
Fri 05:28:49 PM 36.9003 -85.1944 227° Southwest 301 346 27,700 -968 Descending Indianapolis Center
Fri 05:29:51 PM 36.8467 -85.2700 228° Southwest 294 338 26,700 -1,463 Descending Indianapolis Center
Fri 05:30:52 PM 36.7939 -85.3433 228° Southwest 286 329 24,700 -1,805 Descending Indianapolis Center
Fri 05:31:54 PM 36.7447 -85.4119 228° Southwest 270 311 23,000 -1,200 Descending Indianapolis Center
Fri 05:32:17 PM 36.7264 -85.4461 236° Southwest 288 331 23,000  Level Memphis Center
Fri 05:33:17 PM 36.6919 -85.5286 243° Southwest 270 311 23,000 -700 Level Memphis Center
Fri 05:34:17 PM 36.6511 -85.6058 237° Southwest 270 311 21,600 -1,650 Descending Memphis Center
Fri 05:35:17 PM 36.6164 -85.6803 240° Southwest 264 304 19,700 -1,950 Descending Memphis Center
Fri 05:36:17 PM 36.5797 -85.7575 239° Southwest 259 298 17,700 -2,050 Descending Memphis Center
Fri 05:37:17 PM 36.5414 -85.8447 241° Southwest 259 298 15,600 -2,100 Descending Memphis Center
Fri 05:38:17 PM 36.5025 -85.9269 240° Southwest 272 313 13,500 -2,050 Descending Memphis Center
Fri 05:39:17 PM 36.4639 -86.0092 240° Southwest 283 326 11,500 -1,650 Descending Memphis Center
Fri 05:40:17 PM 36.4250 -86.0886 239° Southwest 278 320 10,200 -1,300 Descending Memphis Center
Fri 05:41:17 PM 36.3900 -86.1625 240° Southwest 266 306 8,900 -1,350 Descending Memphis Center
Fri 05:42:17 PM 36.3611 -86.2364 244° Southwest 250 288 7,500 -1,400 Descending Memphis Center
Fri 05:43:17 PM 36.3322 -86.3100 244° Southwest 242 278 6,100 -1,250 Descending Memphis Center
Fri 05:44:17 PM 36.3050 -86.3731 242° Southwest 242 278 5,000 -950 Descending Memphis Center
Fri 05:45:17 PM 36.2783 -86.4489 246° West 242 278 4,200 -500 Descending Memphis Center
Fri 05:46:17 PM 36.2531 -86.5094 243° Southwest 221 254 4,000 -300 Descending Memphis Center
Fri 05:47:17 PM 36.2336 -86.5567 243° Southwest 182 209 3,600 -700 Descending Memphis Center
Fri 05:48:17 PM 36.2183 -86.5986 246° West 147 169 2,600 -900 Descending Memphis Center
Fri 05:49:17 PM 36.1922 -86.6358 229° Southwest 139 160 1,800 -750 Descending Memphis Center
Fri 05:50:17 PM 36.1553 -86.6503 198° South 129 148 1,100 -700 Descending Memphis Center
Fri 05:52:00 PM 36.1167 -86.6667 287° West  Level FlightAware Approximate
Fri 05:59:00 PM 36.1245 -86.6782 287° West  Level Estimated

Login

Don't have an account? Register now (free) for customized features, flight alerts, and more!